createdAt,value
2023-01-13T00:01:20.373Z,97868.78
2023-01-13T00:03:47.406Z,97764.16
2023-01-13T00:06:19.665Z,97875.44
2023-01-13T00:08:50.133Z,97880.91
2023-01-13T00:11:17.129Z,97872.69
2023-01-13T00:13:43.888Z,97867.97
2023-01-13T00:16:15.521Z,97878.38
2023-01-13T00:18:42.752Z,97831.56
2023-01-13T00:21:17.878Z,97869.88
2023-01-13T00:23:45.513Z,97866.41
2023-01-13T00:26:18.323Z,97852.59
2023-01-13T00:28:45.092Z,97896.59
2023-01-13T00:31:17.586Z,97870.66
2023-01-13T00:33:44.290Z,97872.75
2023-01-13T00:36:13.518Z,97725.91
2023-01-13T00:38:42.834Z,97865.09
2023-01-13T00:41:15.530Z,97861.63
2023-01-13T00:43:42.602Z,97741.88
2023-01-13T00:46:11.679Z,97862.47
2023-01-13T00:48:38.934Z,97852.94
2023-01-13T00:51:08.655Z,97713.25
2023-01-13T00:53:37.978Z,97784.69
2023-01-13T00:56:16.880Z,97840.41
2023-01-13T00:58:45.800Z,97831.38
2023-01-13T01:01:21.713Z,97889.25
2023-01-13T01:03:49.964Z,97822.69
2023-01-13T01:06:21.945Z,97835.28
2023-01-13T01:08:48.869Z,97844.50
2023-01-13T01:11:21.918Z,97844.47
2023-01-13T01:13:52.001Z,97847.09
2023-01-13T01:16:20.851Z,97842.59
2023-01-13T01:18:49.169Z,97836.47
2023-01-13T01:21:16.675Z,97729.31
2023-01-13T01:23:43.305Z,97828.22
2023-01-13T01:26:24.900Z,97808.91
2023-01-13T01:28:52.404Z,97824.06
2023-01-13T01:31:24.302Z,97570.75
2023-01-13T01:33:51.641Z,97817.41
2023-01-13T01:36:20.067Z,97815.91
2023-01-13T01:38:47.741Z,97833.63
2023-01-13T01:41:19.537Z,97821.09
2023-01-13T01:44:00.053Z,97814.34
2023-01-13T01:46:31.976Z,97807.44
2023-01-13T01:49:22.204Z,97797.00
2023-01-13T01:51:56.160Z,97661.25
2023-01-13T01:54:30.739Z,97797.69
2023-01-13T01:56:58.126Z,97698.78
2023-01-13T01:59:32.481Z,97655.94
2023-01-13T02:01:59.524Z,97776.44
2023-01-13T02:04:33.121Z,97703.72
2023-01-13T02:07:01.358Z,97764.72
2023-01-13T02:09:28.010Z,97762.38
2023-01-13T02:12:13.160Z,97651.78
2023-01-13T02:14:41.446Z,97714.63
2023-01-13T02:17:27.244Z,97753.00
2023-01-13T02:20:31.223Z,97742.59
2023-01-13T02:23:41.452Z,97742.31
2023-01-13T02:26:34.138Z,97745.53
2023-01-13T02:29:53.862Z,97742.47
2023-01-13T02:32:35.588Z,97730.84
2023-01-13T02:35:10.450Z,97720.38
2023-01-13T02:37:41.873Z,97744.97
2023-01-13T02:40:25.548Z,97715.13
2023-01-13T02:43:24.590Z,97711.25
2023-01-13T02:45:57.050Z,97715.88
2023-01-13T02:48:26.739Z,97700.97
2023-01-13T02:51:22.160Z,97689.19
2023-01-13T02:54:03.658Z,97691.09
2023-01-13T02:56:31.698Z,97649.00
2023-01-13T02:59:00.132Z,97684.72
2023-01-13T03:01:27.426Z,97684.00
2023-01-13T03:03:54.073Z,97683.50
2023-01-13T03:06:26.772Z,97675.47
2023-01-13T03:09:03.565Z,97671.75
2023-01-13T03:11:38.152Z,97660.44
2023-01-13T03:14:24.233Z,97657.72
2023-01-13T03:17:05.566Z,97653.69
2023-01-13T03:20:07.450Z,97658.78
2023-01-13T03:22:42.886Z,97525.94
2023-01-13T03:25:26.379Z,97650.13
2023-01-13T03:27:55.638Z,97640.84
2023-01-13T03:30:32.651Z,97640.09
2023-01-13T03:33:06.677Z,97640.38
2023-01-13T03:35:40.761Z,97629.06
2023-01-13T03:38:13.526Z,97580.22
2023-01-13T03:40:50.755Z,97624.19
2023-01-13T03:43:42.165Z,97639.88
2023-01-13T03:46:16.366Z,97536.13
2023-01-13T03:48:46.125Z,97628.38
2023-01-13T03:51:17.956Z,97613.97
2023-01-13T03:53:50.647Z,97617.09
2023-01-13T03:56:36.249Z,97616.34
2023-01-13T03:59:07.423Z,97610.88
2023-01-13T04:01:42.186Z,97612.63
2023-01-13T04:04:54.207Z,97601.66
2023-01-13T04:07:37.626Z,97596.03
2023-01-13T04:10:08.439Z,97600.25
2023-01-13T04:12:59.770Z,97617.84
2023-01-13T04:15:29.695Z,97605.25
2023-01-13T04:18:08.709Z,97604.59
2023-01-13T04:20:35.507Z,97558.38
2023-01-13T04:23:02.331Z,97589.75
2023-01-13T04:25:29.118Z,97594.72
2023-01-13T04:27:55.668Z,97596.88
2023-01-13T04:30:22.314Z,97596.34
2023-01-13T04:32:49.159Z,97508.16
2023-01-13T04:35:16.068Z,97590.81
2023-01-13T04:37:42.612Z,97583.47
2023-01-13T04:40:09.766Z,97581.16
2023-01-13T04:42:36.328Z,97585.06
2023-01-13T04:45:03.315Z,97578.56
2023-01-13T04:47:29.994Z,97580.59
2023-01-13T04:49:56.609Z,97579.00
2023-01-13T04:52:23.167Z,97583.72
2023-01-13T04:54:49.787Z,97483.66
2023-01-13T04:57:16.328Z,97572.69
2023-01-13T04:59:42.910Z,97570.69
2023-01-13T05:02:09.620Z,97563.91
2023-01-13T05:04:36.336Z,97560.78
2023-01-13T05:07:02.947Z,97560.44
2023-01-13T05:09:29.613Z,97556.19
2023-01-13T05:12:14.541Z,97553.75
2023-01-13T05:15:00.022Z,97543.97
2023-01-13T05:17:27.008Z,97545.63
2023-01-13T05:19:53.570Z,97482.03
2023-01-13T05:22:38.839Z,97487.84
2023-01-13T05:25:24.369Z,97544.53
2023-01-13T05:27:53.383Z,97539.19
2023-01-13T05:30:29.612Z,97519.06
2023-01-13T05:32:56.862Z,97413.44
2023-01-13T05:35:24.022Z,97444.44
2023-01-13T05:37:51.384Z,97534.03
2023-01-13T05:40:37.359Z,97351.09
2023-01-13T05:43:19.890Z,97531.59
2023-01-13T05:45:47.471Z,97526.88
2023-01-13T05:48:14.553Z,97524.66
2023-01-13T05:50:41.160Z,97529.66
2023-01-13T05:53:07.949Z,97479.44
2023-01-13T05:55:34.717Z,97523.25
2023-01-13T05:58:01.342Z,97451.16
2023-01-13T06:00:28.067Z,97515.63
2023-01-13T06:02:54.844Z,97516.38
2023-01-13T06:05:21.441Z,97511.66
2023-01-13T06:07:48.061Z,97513.06
2023-01-13T06:10:14.744Z,97514.22
2023-01-13T06:12:41.299Z,97427.19
2023-01-13T06:15:08.365Z,97510.25
2023-01-13T06:17:34.980Z,97466.91
2023-01-13T06:20:01.628Z,97510.94
2023-01-13T06:22:32.938Z,97511.41
2023-01-13T06:24:59.625Z,97503.38
2023-01-13T06:27:26.233Z,97513.75
2023-01-13T06:29:52.913Z,97466.63
2023-01-13T06:32:23.508Z,97508.78
2023-01-13T06:34:55.546Z,97508.69
2023-01-13T06:37:26.089Z,97472.41
2023-01-13T06:39:58.487Z,97478.69
2023-01-13T06:42:47.000Z,97507.44
2023-01-13T06:45:13.875Z,97507.00
2023-01-13T06:47:41.048Z,97507.06
2023-01-13T06:50:08.191Z,97424.66
2023-01-13T06:52:34.935Z,97513.66
2023-01-13T06:55:01.759Z,97394.47
2023-01-13T06:57:28.311Z,97510.03
2023-01-13T06:59:54.924Z,97514.59
2023-01-13T07:02:21.523Z,97510.75
2023-01-13T07:04:48.786Z,97348.31
2023-01-13T07:07:15.396Z,97523.09
2023-01-13T07:09:41.953Z,97505.41
2023-01-13T07:12:08.586Z,97510.59
2023-01-13T07:14:54.269Z,97413.97
2023-01-13T07:17:25.367Z,97468.75
2023-01-13T07:19:53.097Z,97514.16
2023-01-13T07:22:19.784Z,97526.09
2023-01-13T07:24:46.448Z,97526.72
2023-01-13T07:27:13.104Z,97425.88
2023-01-13T07:29:39.810Z,97534.16
2023-01-13T07:32:07.779Z,97471.28
2023-01-13T07:34:34.434Z,97546.25
2023-01-13T07:37:01.789Z,97534.03
2023-01-13T07:39:28.440Z,97528.88
2023-01-13T07:42:13.416Z,97470.25
2023-01-13T07:44:40.080Z,97423.75
2023-01-13T07:47:08.544Z,97413.06
2023-01-13T07:49:35.255Z,97427.94
2023-01-13T07:52:02.235Z,97539.53
2023-01-13T07:54:40.131Z,97531.31
2023-01-13T07:57:07.851Z,97538.09
2023-01-13T07:59:34.715Z,97518.06
2023-01-13T08:02:01.394Z,97543.91
2023-01-13T08:04:28.134Z,97549.72
2023-01-13T08:06:54.668Z,97549.88
2023-01-13T08:09:21.401Z,97550.22
2023-01-13T08:12:07.919Z,97547.63
2023-01-13T08:14:34.584Z,97552.94
2023-01-13T08:17:01.133Z,97555.84
2023-01-13T08:19:27.788Z,97442.34
2023-01-13T08:21:54.367Z,97553.94
2023-01-13T08:24:20.974Z,97494.97
2023-01-13T08:26:47.571Z,97518.41
2023-01-13T08:29:15.157Z,97444.44
2023-01-13T08:31:41.887Z,97459.31
2023-01-13T08:34:09.076Z,97556.53
2023-01-13T08:36:35.702Z,97563.78
2023-01-13T08:39:02.424Z,97567.66
2023-01-13T08:41:47.607Z,97560.88
2023-01-13T08:44:14.184Z,97438.78
2023-01-13T08:46:41.800Z,97556.69
2023-01-13T08:49:08.643Z,97474.16
2023-01-13T08:51:35.541Z,97561.19
2023-01-13T08:54:02.418Z,97566.03
2023-01-13T08:56:35.286Z,97574.09
2023-01-13T08:59:02.878Z,97578.00
2023-01-13T09:01:32.565Z,97581.88
2023-01-13T09:03:59.237Z,97552.94
2023-01-13T09:06:25.956Z,97489.75
2023-01-13T09:08:52.683Z,97587.03
2023-01-13T09:11:49.224Z,97559.44
2023-01-13T09:14:23.862Z,97566.19
2023-01-13T09:16:50.588Z,97583.00
2023-01-13T09:19:17.217Z,97541.47
2023-01-13T09:21:43.815Z,97588.81
2023-01-13T09:24:10.497Z,97592.34
2023-01-13T09:26:37.985Z,97595.78
2023-01-13T09:29:05.083Z,97597.88
2023-01-13T09:31:34.534Z,97600.31
2023-01-13T09:34:20.742Z,97573.00
2023-01-13T09:36:47.895Z,97598.84
2023-01-13T09:39:14.959Z,97596.25
2023-01-13T09:42:03.601Z,97398.38
2023-01-13T09:44:55.430Z,97599.81
2023-01-13T09:47:45.752Z,97600.78
2023-01-13T09:50:15.170Z,97609.34
2023-01-13T09:52:43.079Z,97614.34
2023-01-13T09:55:18.942Z,97599.47
2023-01-13T09:57:45.686Z,97604.66
2023-01-13T10:00:39.282Z,97598.19
2023-01-13T10:03:18.178Z,97595.94
2023-01-13T10:05:50.837Z,97601.41
2023-01-13T10:08:24.461Z,97488.34
2023-01-13T10:10:59.739Z,97596.56
2023-01-13T10:13:30.672Z,97605.78
2023-01-13T10:16:42.025Z,97607.06
2023-01-13T10:19:26.591Z,97472.53
2023-01-13T10:22:12.683Z,97606.09
2023-01-13T10:24:58.259Z,97610.97
2023-01-13T10:27:39.170Z,97606.91
2023-01-13T10:30:21.238Z,97610.13
2023-01-13T10:32:55.176Z,97600.47
2023-01-13T10:36:00.378Z,97613.56
2023-01-13T10:38:40.399Z,97604.97
2023-01-13T10:41:15.842Z,97607.38
2023-01-13T10:44:08.623Z,97611.94
2023-01-13T10:46:52.198Z,97601.25
2023-01-13T10:49:30.984Z,97608.06
2023-01-13T10:51:57.720Z,97595.13
2023-01-13T10:54:25.936Z,97594.31
2023-01-13T10:57:19.544Z,97594.94
2023-01-13T10:59:46.785Z,97602.53
2023-01-13T11:02:27.592Z,97599.81
2023-01-13T11:04:54.333Z,97597.88
2023-01-13T11:07:28.827Z,97504.13
2023-01-13T11:10:17.765Z,97609.81
2023-01-13T11:12:52.829Z,97548.94
2023-01-13T11:15:24.546Z,97599.31
2023-01-13T11:18:01.609Z,97618.06
2023-01-13T11:20:34.020Z,97490.09
2023-01-13T11:23:14.519Z,97648.59
2023-01-13T11:25:49.049Z,97618.56
2023-01-13T11:28:39.632Z,97615.63
2023-01-13T11:31:18.558Z,97620.16
2023-01-13T11:33:52.846Z,97609.50
2023-01-13T11:36:34.620Z,97616.13
2023-01-13T11:39:21.321Z,97461.38
2023-01-13T11:42:15.529Z,97606.13
2023-01-13T11:44:49.670Z,97611.75
2023-01-13T11:47:20.895Z,97603.84
2023-01-13T11:49:48.628Z,97610.97
2023-01-13T11:52:39.964Z,97542.59
2023-01-13T11:55:24.777Z,97605.97
2023-01-13T11:57:56.788Z,97595.13
2023-01-13T12:00:29.067Z,97600.56
2023-01-13T12:03:32.450Z,97602.75
2023-01-13T12:06:17.164Z,97593.13
2023-01-13T12:09:11.824Z,97602.66
2023-01-13T12:12:22.694Z,97604.63
2023-01-13T12:15:30.993Z,97608.47
2023-01-13T12:18:30.400Z,97565.84
2023-01-13T12:21:15.253Z,97588.06
2023-01-13T12:24:09.440Z,97607.81
2023-01-13T12:26:41.789Z,97505.78
2023-01-13T12:29:19.493Z,97619.41
2023-01-13T12:31:50.489Z,97615.00
2023-01-13T12:35:00.237Z,97617.88
2023-01-13T12:37:42.873Z,97616.59
2023-01-13T12:40:24.568Z,97616.50
2023-01-13T12:43:23.631Z,97566.19
2023-01-13T12:45:50.330Z,97616.81
2023-01-13T12:48:56.843Z,97618.94
2023-01-13T12:51:33.994Z,97614.09
2023-01-13T12:54:02.466Z,97531.09
2023-01-13T12:56:44.718Z,97611.22
2023-01-13T12:59:17.592Z,97609.38
2023-01-13T13:01:48.618Z,97619.50
2023-01-13T13:04:20.896Z,97605.00
2023-01-13T13:06:56.000Z,97588.94
2023-01-13T13:09:32.163Z,97618.31
2023-01-13T13:12:37.425Z,97619.06
2023-01-13T13:15:18.734Z,97624.59
2023-01-13T13:18:00.073Z,97600.56
2023-01-13T13:20:54.213Z,97615.75
2023-01-13T13:23:27.891Z,97615.59
2023-01-13T13:26:24.829Z,97627.88
2023-01-13T13:29:34.741Z,97626.28
2023-01-13T13:32:12.911Z,97518.66
2023-01-13T13:34:53.950Z,97611.44
2023-01-13T13:38:10.044Z,97617.84
2023-01-13T13:41:03.068Z,97650.88
2023-01-13T13:43:50.775Z,97629.84
2023-01-13T13:46:46.584Z,97631.22
2023-01-13T13:49:21.718Z,97631.88
2023-01-13T13:52:01.092Z,97638.25
2023-01-13T13:54:28.112Z,97634.97
2023-01-13T13:56:54.778Z,97515.09
2023-01-13T13:59:24.825Z,97632.03
2023-01-13T14:02:03.904Z,97630.28
2023-01-13T14:04:36.081Z,97630.81
2023-01-13T14:07:18.295Z,97634.06
2023-01-13T14:09:48.193Z,97634.47
2023-01-13T14:12:27.448Z,97630.59
2023-01-13T14:14:59.864Z,97637.31
2023-01-13T14:17:29.203Z,97649.81
2023-01-13T14:20:05.157Z,97637.66
2023-01-13T14:22:33.464Z,97576.72
2023-01-13T14:25:01.839Z,97623.97
2023-01-13T14:27:30.059Z,97643.03
2023-01-13T14:30:00.425Z,97649.66
2023-01-13T14:32:34.792Z,97652.63
2023-01-13T14:35:06.490Z,97659.94
2023-01-13T14:37:38.517Z,97611.19
2023-01-13T14:40:06.120Z,97647.69
2023-01-13T14:42:35.400Z,97654.38
2023-01-13T14:45:03.217Z,97535.38
2023-01-13T14:47:33.776Z,97655.47
2023-01-13T14:50:21.966Z,97508.16
2023-01-13T14:52:57.192Z,97663.41
2023-01-13T14:55:26.772Z,97663.31
2023-01-13T14:58:13.748Z,97671.06
2023-01-13T15:00:40.431Z,97661.38
2023-01-13T15:03:08.396Z,97675.66
2023-01-13T15:05:39.661Z,97656.97
2023-01-13T15:08:13.916Z,97663.56
2023-01-13T15:11:00.009Z,97668.22
2023-01-13T15:13:48.097Z,97494.75
2023-01-13T15:16:24.958Z,97670.69
2023-01-13T15:18:52.616Z,97679.09
2023-01-13T15:21:19.562Z,97680.94
2023-01-13T15:23:47.327Z,97627.56
2023-01-13T15:26:18.847Z,97676.31
2023-01-13T15:28:45.848Z,97637.47
2023-01-13T15:31:12.445Z,97684.50
2023-01-13T15:33:39.272Z,97684.06
2023-01-13T15:36:17.512Z,97700.09
2023-01-13T15:38:44.128Z,97693.41
2023-01-13T15:41:10.706Z,97687.84
2023-01-13T15:43:55.739Z,97689.47
2023-01-13T15:46:37.903Z,97688.59
2023-01-13T15:49:26.651Z,97693.50
2023-01-13T15:51:53.275Z,97651.06
2023-01-13T15:54:22.820Z,97695.69
2023-01-13T15:56:49.488Z,97599.28
2023-01-13T15:59:21.129Z,97698.59
2023-01-13T16:01:47.962Z,97670.69
2023-01-13T16:04:14.607Z,97708.22
2023-01-13T16:06:41.660Z,97682.78
2023-01-13T16:09:12.344Z,97713.38
2023-01-13T16:11:39.059Z,97671.13
2023-01-13T16:14:05.648Z,97704.28
2023-01-13T16:16:32.250Z,97709.88
2023-01-13T16:18:58.859Z,97710.69
2023-01-13T16:21:25.616Z,97705.16
2023-01-13T16:23:52.461Z,97707.88
2023-01-13T16:26:25.079Z,97713.44
2023-01-13T16:28:54.850Z,97522.63
2023-01-13T16:31:32.031Z,97717.84
2023-01-13T16:34:01.247Z,97600.72
2023-01-13T16:36:30.499Z,97721.44
2023-01-13T16:38:57.471Z,97721.91
2023-01-13T16:41:27.141Z,97701.69
2023-01-13T16:43:54.332Z,97573.16
2023-01-13T16:46:29.206Z,97719.19
2023-01-13T16:49:01.295Z,97518.81
2023-01-13T16:51:28.005Z,97584.91
2023-01-13T16:53:54.573Z,97676.34
2023-01-13T16:56:25.304Z,97696.47
2023-01-13T16:58:53.771Z,97724.69
2023-01-13T17:01:26.340Z,97731.00
2023-01-13T17:03:54.339Z,97708.69
2023-01-13T17:06:24.743Z,97734.47
2023-01-13T17:08:53.157Z,97670.84
2023-01-13T17:11:20.626Z,97738.75
2023-01-13T17:13:47.425Z,97684.91
2023-01-13T17:16:18.064Z,97730.28
2023-01-13T17:18:44.804Z,97733.00
2023-01-13T17:21:11.528Z,97603.56
2023-01-13T17:23:38.169Z,97610.09
2023-01-13T17:26:05.148Z,97692.06
2023-01-13T17:28:31.808Z,97715.38
2023-01-13T17:30:58.455Z,97727.06
2023-01-13T17:33:25.101Z,97742.72
2023-01-13T17:35:51.984Z,97739.81
2023-01-13T17:38:18.610Z,97619.06
2023-01-13T17:40:45.292Z,97734.97
2023-01-13T17:43:11.978Z,97737.03
2023-01-13T17:45:41.073Z,97744.06
2023-01-13T17:48:07.762Z,97740.00
2023-01-13T17:50:34.881Z,97736.47
2023-01-13T17:53:01.625Z,97737.41
2023-01-13T17:55:28.220Z,97732.00
2023-01-13T17:57:54.962Z,97710.06
2023-01-13T18:00:21.995Z,97715.59
2023-01-13T18:02:48.595Z,97749.72
2023-01-13T18:05:15.359Z,97703.69
2023-01-13T18:07:41.992Z,97743.50
2023-01-13T18:10:09.322Z,97743.78
2023-01-13T18:12:35.968Z,97632.47
2023-01-13T18:15:02.731Z,97694.28
2023-01-13T18:17:29.661Z,97635.53
2023-01-13T18:20:14.938Z,97707.09
2023-01-13T18:23:00.225Z,97755.19
2023-01-13T18:25:45.231Z,97754.03
2023-01-13T18:28:11.807Z,97739.31
2023-01-13T18:30:38.597Z,97759.66
2023-01-13T18:33:05.267Z,97768.13
2023-01-13T18:35:31.800Z,97765.31
2023-01-13T18:37:58.406Z,97765.88
2023-01-13T18:40:25.248Z,97776.50
2023-01-13T18:42:52.221Z,97756.00
2023-01-13T18:45:24.716Z,97648.91
2023-01-13T18:47:52.012Z,97697.88
2023-01-13T18:50:19.044Z,97776.88
2023-01-13T18:52:45.935Z,97782.56
2023-01-13T18:55:12.891Z,97780.19
2023-01-13T18:57:40.491Z,97784.81
2023-01-13T19:00:11.647Z,97791.03
2023-01-13T19:02:38.885Z,97758.34
2023-01-13T19:05:06.103Z,97792.97
2023-01-13T19:07:35.482Z,97792.81
2023-01-13T19:10:04.342Z,97798.53
2023-01-13T19:12:31.222Z,97798.09
2023-01-13T19:14:58.404Z,97688.25
2023-01-13T19:17:27.161Z,97806.28
2023-01-13T19:19:55.613Z,97773.09
2023-01-13T19:22:31.140Z,97805.44
2023-01-13T19:24:58.779Z,97698.66
2023-01-13T19:27:27.527Z,97791.69
2023-01-13T19:29:57.447Z,97822.34
2023-01-13T19:32:25.215Z,97712.25
2023-01-13T19:34:51.939Z,97771.03
2023-01-13T19:37:18.992Z,97823.63
2023-01-13T19:39:45.635Z,97824.38
2023-01-13T19:42:31.224Z,97834.09
2023-01-13T19:45:16.569Z,97827.03
2023-01-13T19:47:45.363Z,97836.44
2023-01-13T19:50:13.046Z,97830.88
2023-01-13T19:52:39.933Z,97843.91
2023-01-13T19:55:06.941Z,97839.09
2023-01-13T19:57:33.629Z,97848.38
2023-01-13T20:00:00.250Z,97847.28
2023-01-13T20:02:31.512Z,97857.53
2023-01-13T20:05:00.980Z,97849.94
2023-01-13T20:07:30.401Z,97853.06
2023-01-13T20:09:57.552Z,97857.25
2023-01-13T20:12:25.593Z,97861.78
2023-01-13T20:14:52.892Z,97789.91
2023-01-13T20:17:21.585Z,97861.53
2023-01-13T20:19:48.177Z,97804.69
2023-01-13T20:22:14.984Z,97889.44
2023-01-13T20:24:41.567Z,97852.31
2023-01-13T20:27:08.374Z,97880.31
2023-01-13T20:29:35.279Z,97870.47
2023-01-13T20:32:02.349Z,97789.94
2023-01-13T20:34:29.064Z,97877.38
2023-01-13T20:36:55.725Z,97881.34
2023-01-13T20:39:26.140Z,97890.91
2023-01-13T20:42:11.419Z,97888.56
2023-01-13T20:44:38.070Z,97893.78
2023-01-13T20:47:05.231Z,97769.91
2023-01-13T20:49:31.898Z,97459.16
2023-01-13T20:51:58.890Z,97899.97
2023-01-13T20:54:26.214Z,97933.75
2023-01-13T20:56:53.365Z,97905.09
2023-01-13T20:59:20.221Z,97912.28
2023-01-13T21:01:46.968Z,97857.25
2023-01-13T21:04:13.559Z,97886.22
2023-01-13T21:06:41.560Z,97791.38
2023-01-13T21:09:08.897Z,97915.06
2023-01-13T21:11:54.588Z,97885.00
2023-01-13T21:14:42.562Z,97917.50
2023-01-13T21:17:29.914Z,97786.13
2023-01-13T21:19:56.856Z,97735.03
2023-01-13T21:22:23.800Z,97926.81
2023-01-13T21:24:50.363Z,97908.81
2023-01-13T21:27:18.285Z,97942.06
2023-01-13T21:29:46.250Z,97942.50
2023-01-13T21:32:13.094Z,97833.38
2023-01-13T21:34:39.716Z,97932.25
2023-01-13T21:37:06.301Z,97942.81
2023-01-13T21:39:33.103Z,97968.56
2023-01-13T21:42:18.031Z,97893.16
2023-01-13T21:45:03.331Z,97951.03
2023-01-13T21:47:48.467Z,97953.78
2023-01-13T21:50:21.647Z,97942.72
2023-01-13T21:52:49.667Z,97885.06
2023-01-13T21:55:28.401Z,97975.28
2023-01-13T21:57:56.591Z,97970.31
2023-01-13T22:00:28.679Z,97969.69
2023-01-13T22:02:56.131Z,97971.19
2023-01-13T22:05:24.949Z,97966.97
2023-01-13T22:07:52.333Z,97953.28
2023-01-13T22:10:21.979Z,97811.88
2023-01-13T22:12:48.959Z,97947.69
2023-01-13T22:15:16.395Z,97969.06
2023-01-13T22:17:45.447Z,97976.53
2023-01-13T22:20:13.362Z,97981.97
2023-01-13T22:22:40.069Z,97975.13
2023-01-13T22:25:09.743Z,97977.41
2023-01-13T22:27:48.204Z,97992.53
2023-01-13T22:30:21.786Z,97990.91
2023-01-13T22:32:48.498Z,97920.75
2023-01-13T22:35:15.952Z,97864.59
2023-01-13T22:37:43.183Z,98005.66
2023-01-13T22:40:12.056Z,97803.75
2023-01-13T22:42:39.904Z,97632.56
2023-01-13T22:45:09.904Z,97969.34
2023-01-13T22:47:37.197Z,98016.47
2023-01-13T22:50:05.082Z,98011.59
2023-01-13T22:52:33.398Z,98017.63
2023-01-13T22:55:00.854Z,98015.69
2023-01-13T22:57:35.919Z,97976.06
2023-01-13T23:00:06.320Z,98022.88
2023-01-13T23:02:34.572Z,98031.56
2023-01-13T23:05:01.827Z,98024.44
2023-01-13T23:07:28.831Z,98022.06
2023-01-13T23:09:55.524Z,97967.53
2023-01-13T23:12:22.451Z,98032.25
2023-01-13T23:14:49.142Z,98038.50
2023-01-13T23:17:15.681Z,98040.16
2023-01-13T23:19:42.290Z,97988.84
2023-01-13T23:22:08.891Z,98001.03
2023-01-13T23:24:35.539Z,98045.47
2023-01-13T23:27:02.149Z,98052.09
2023-01-13T23:29:28.774Z,97870.91
2023-01-13T23:31:55.340Z,98061.47
2023-01-13T23:34:21.983Z,98037.19
2023-01-13T23:36:48.684Z,97996.06
2023-01-13T23:39:15.280Z,97982.25
2023-01-13T23:41:41.817Z,97916.50
2023-01-13T23:44:09.555Z,98023.28
2023-01-13T23:46:36.128Z,98079.50
2023-01-13T23:49:03.644Z,98079.25
2023-01-13T23:51:30.676Z,98071.06
2023-01-13T23:53:59.049Z,98059.44
2023-01-13T23:56:28.465Z,98087.13
2023-01-13T23:58:55.694Z,98013.19
